Airport View

Enter AWOS ICAO identifier for current METAR.

ex. KFNL

PATL 211455Z AUTO 03004KT 10SM BKN170 01/M01 A2956

21 Sep 2019 15:53

Phone: 907-552-1106

Other Area AWOS: PAMC - PAFS - PASL - PAHX

TAF PAMC 211122Z 2112/2212 27006KT P6SM VCSH SKC FM211500 VRB04KT P6SM SCT040 BKN100